Atlanta, Georgia
Traffic Map
Current Weather Conditions
Atlanta, Georgia
Broken Clouds
Broken Clouds
27°
Feels Like: 27°
Wind Chill: 27° Ceiling: 4300
Heat Index: 27° Visibility: 10mi
Dew Point: 16° Wind: 15mph
Humidity: 50% Direction: 90° (E)
Pressure: 30.01in Gusts: 23mph
Raw Report DataKATL 011552Z 09013G20KT 10SM BKN043 27/16 A3001 RMK AO2 SLP152 T02670156 $
Traffic Incident Summary
Active as of:
Severity:
Category:
InformationThere was an issue retrieving the traffic information for this location. Please try a different location or try again shortly.
Advertisements
Track Severe Weather on mobile